sensor_id;sensor_type;location;lat;lon;timestamp;P1;durP1;ratioP1;P2;durP2;ratioP2
20997;SDS011;10657;51.276;6.390;2023-05-23T00:01:46;13.68;;;9.05;;
20997;SDS011;10657;51.276;6.390;2023-05-23T00:04:14;14.68;;;9.10;;
20997;SDS011;10657;51.276;6.390;2023-05-23T00:06:44;14.65;;;9.02;;
20997;SDS011;10657;51.276;6.390;2023-05-23T00:09:15;16.35;;;9.95;;
20997;SDS011;10657;51.276;6.390;2023-05-23T00:11:42;14.65;;;9.25;;
20997;SDS011;10657;51.276;6.390;2023-05-23T00:14:13;15.20;;;8.88;;
20997;SDS011;10657;51.276;6.390;2023-05-23T00:16:41;12.48;;;8.82;;
20997;SDS011;10657;51.276;6.390;2023-05-23T00:19:10;16.73;;;9.57;;
20997;SDS011;10657;51.276;6.390;2023-05-23T00:21:37;13.52;;;8.50;;
20997;SDS011;10657;51.276;6.390;2023-05-23T00:24:04;12.80;;;8.13;;
20997;SDS011;10657;51.276;6.390;2023-05-23T00:26:31;12.50;;;8.50;;
20997;SDS011;10657;51.276;6.390;2023-05-23T00:28:58;12.07;;;7.60;;
20997;SDS011;10657;51.276;6.390;2023-05-23T00:31:24;11.50;;;7.53;;
20997;SDS011;10657;51.276;6.390;2023-05-23T00:33:51;11.73;;;7.13;;
20997;SDS011;10657;51.276;6.390;2023-05-23T00:36:18;11.43;;;5.95;;
20997;SDS011;10657;51.276;6.390;2023-05-23T00:38:45;9.18;;;5.50;;
20997;SDS011;10657;51.276;6.390;2023-05-23T00:41:12;9.65;;;4.75;;
20997;SDS011;10657;51.276;6.390;2023-05-23T00:43:38;9.88;;;5.30;;
20997;SDS011;10657;51.276;6.390;2023-05-23T00:46:05;8.32;;;4.63;;
20997;SDS011;10657;51.276;6.390;2023-05-23T00:48:33;9.40;;;4.32;;
20997;SDS011;10657;51.276;6.390;2023-05-23T00:51:00;8.32;;;4.40;;
20997;SDS011;10657;51.276;6.390;2023-05-23T00:53:27;10.02;;;4.30;;
20997;SDS011;10657;51.276;6.390;2023-05-23T00:55:54;8.52;;;4.90;;
20997;SDS011;10657;51.276;6.390;2023-05-23T00:58:20;8.65;;;5.15;;
20997;SDS011;10657;51.276;6.390;2023-05-23T01:00:48;8.88;;;4.93;;
20997;SDS011;10657;51.276;6.390;2023-05-23T01:03:15;8.82;;;4.97;;
20997;SDS011;10657;51.276;6.390;2023-05-23T01:05:43;9.15;;;4.88;;
20997;SDS011;10657;51.276;6.390;2023-05-23T01:08:10;8.40;;;5.70;;
20997;SDS011;10657;51.276;6.390;2023-05-23T01:10:37;11.02;;;5.07;;
20997;SDS011;10657;51.276;6.390;2023-05-23T01:18:30;9.73;;;5.28;;
20997;SDS011;10657;51.276;6.390;2023-05-23T01:21:16;8.15;;;5.15;;
20997;SDS011;10657;51.276;6.390;2023-05-23T01:29:05;10.32;;;5.95;;
20997;SDS011;10657;51.276;6.390;2023-05-23T01:31:36;9.02;;;5.57;;
20997;SDS011;10657;51.276;6.390;2023-05-23T01:34:11;9.15;;;5.68;;
20997;SDS011;10657;51.276;6.390;2023-05-23T01:36:39;11.13;;;6.85;;
20997;SDS011;10657;51.276;6.390;2023-05-23T01:39:07;10.68;;;6.07;;
20997;SDS011;10657;51.276;6.390;2023-05-23T01:41:34;9.70;;;5.70;;
20997;SDS011;10657;51.276;6.390;2023-05-23T01:44:01;11.63;;;6.65;;
20997;SDS011;10657;51.276;6.390;2023-05-23T01:46:28;10.20;;;6.72;;
20997;SDS011;10657;51.276;6.390;2023-05-23T01:48:57;10.13;;;6.40;;
20997;SDS011;10657;51.276;6.390;2023-05-23T01:51:25;11.35;;;7.65;;
20997;SDS011;10657;51.276;6.390;2023-05-23T01:53:52;11.82;;;6.75;;
20997;SDS011;10657;51.276;6.390;2023-05-23T01:56:19;11.88;;;6.35;;
20997;SDS011;10657;51.276;6.390;2023-05-23T01:58:47;12.68;;;6.25;;
20997;SDS011;10657;51.276;6.390;2023-05-23T02:01:14;12.27;;;7.22;;
20997;SDS011;10657;51.276;6.390;2023-05-23T02:03:41;13.05;;;6.47;;
20997;SDS011;10657;51.276;6.390;2023-05-23T02:06:07;10.70;;;6.38;;
20997;SDS011;10657;51.276;6.390;2023-05-23T02:08:34;8.95;;;6.13;;
20997;SDS011;10657;51.276;6.390;2023-05-23T02:11:00;11.13;;;6.22;;
20997;SDS011;10657;51.276;6.390;2023-05-23T02:13:27;11.55;;;6.15;;
20997;SDS011;10657;51.276;6.390;2023-05-23T02:15:54;18.80;;;6.80;;
20997;SDS011;10657;51.276;6.390;2023-05-23T02:18:21;11.35;;;6.00;;
20997;SDS011;10657;51.276;6.390;2023-05-23T02:20:51;11.57;;;5.80;;
20997;SDS011;10657;51.276;6.390;2023-05-23T02:23:18;11.95;;;5.80;;
20997;SDS011;10657;51.276;6.390;2023-05-23T02:25:44;11.63;;;6.43;;
20997;SDS011;10657;51.276;6.390;2023-05-23T02:28:11;9.98;;;5.65;;
20997;SDS011;10657;51.276;6.390;2023-05-23T02:30:38;9.68;;;5.82;;
20997;SDS011;10657;51.276;6.390;2023-05-23T02:33:06;14.88;;;6.80;;
20997;SDS011;10657;51.276;6.390;2023-05-23T02:35:33;10.38;;;5.55;;
20997;SDS011;10657;51.276;6.390;2023-05-23T02:38:00;9.85;;;5.82;;
20997;SDS011;10657;51.276;6.390;2023-05-23T02:40:26;10.48;;;6.03;;
20997;SDS011;10657;51.276;6.390;2023-05-23T02:42:53;9.50;;;5.70;;
20997;SDS011;10657;51.276;6.390;2023-05-23T02:45:22;12.40;;;6.03;;
20997;SDS011;10657;51.276;6.390;2023-05-23T02:47:49;11.02;;;5.38;;
20997;SDS011;10657;51.276;6.390;2023-05-23T02:50:16;10.10;;;6.05;;
20997;SDS011;10657;51.276;6.390;2023-05-23T02:52:43;10.27;;;5.43;;
20997;SDS011;10657;51.276;6.390;2023-05-23T02:55:10;13.80;;;5.50;;
20997;SDS011;10657;51.276;6.390;2023-05-23T02:57:36;16.17;;;6.55;;
20997;SDS011;10657;51.276;6.390;2023-05-23T03:00:03;10.30;;;5.68;;
20997;SDS011;10657;51.276;6.390;2023-05-23T03:02:30;12.63;;;5.88;;
20997;SDS011;10657;51.276;6.390;2023-05-23T03:04:57;13.38;;;6.68;;
20997;SDS011;10657;51.276;6.390;2023-05-23T03:07:24;10.73;;;5.70;;
20997;SDS011;10657;51.276;6.390;2023-05-23T03:09:54;13.63;;;5.72;;
20997;SDS011;10657;51.276;6.390;2023-05-23T03:12:21;12.30;;;5.70;;
20997;SDS011;10657;51.276;6.390;2023-05-23T03:14:48;10.80;;;5.88;;
20997;SDS011;10657;51.276;6.390;2023-05-23T03:17:14;11.65;;;5.85;;
20997;SDS011;10657;51.276;6.390;2023-05-23T03:19:41;11.88;;;5.57;;
20997;SDS011;10657;51.276;6.390;2023-05-23T03:22:08;10.55;;;5.95;;
20997;SDS011;10657;51.276;6.390;2023-05-23T03:24:35;10.70;;;6.13;;
20997;SDS011;10657;51.276;6.390;2023-05-23T03:27:01;11.82;;;6.50;;
20997;SDS011;10657;51.276;6.390;2023-05-23T03:29:29;12.32;;;6.57;;
20997;SDS011;10657;51.276;6.390;2023-05-23T03:31:56;10.55;;;5.72;;
20997;SDS011;10657;51.276;6.390;2023-05-23T03:34:22;10.18;;;5.43;;
20997;SDS011;10657;51.276;6.390;2023-05-23T03:36:51;11.70;;;5.40;;
20997;SDS011;10657;51.276;6.390;2023-05-23T03:39:18;11.45;;;6.70;;
20997;SDS011;10657;51.276;6.390;2023-05-23T03:41:45;10.40;;;5.18;;
20997;SDS011;10657;51.276;6.390;2023-05-23T03:44:12;10.73;;;5.80;;
20997;SDS011;10657;51.276;6.390;2023-05-23T03:46:39;11.77;;;5.53;;
20997;SDS011;10657;51.276;6.390;2023-05-23T03:49:06;12.73;;;5.50;;
20997;SDS011;10657;51.276;6.390;2023-05-23T03:51:33;10.82;;;6.35;;
20997;SDS011;10657;51.276;6.390;2023-05-23T03:54:00;9.55;;;5.47;;
20997;SDS011;10657;51.276;6.390;2023-05-23T03:56:26;12.02;;;5.45;;
20997;SDS011;10657;51.276;6.390;2023-05-23T03:58:53;10.63;;;4.95;;
20997;SDS011;10657;51.276;6.390;2023-05-23T04:01:20;14.13;;;6.25;;
20997;SDS011;10657;51.276;6.390;2023-05-23T04:03:47;10.40;;;5.60;;
20997;SDS011;10657;51.276;6.390;2023-05-23T04:06:14;11.27;;;5.90;;
20997;SDS011;10657;51.276;6.390;2023-05-23T04:08:42;11.57;;;5.38;;
20997;SDS011;10657;51.276;6.390;2023-05-23T04:11:09;11.43;;;5.75;;
20997;SDS011;10657;51.276;6.390;2023-05-23T04:13:35;13.65;;;5.90;;
20997;SDS011;10657;51.276;6.390;2023-05-23T04:16:03;13.00;;;6.15;;
20997;SDS011;10657;51.276;6.390;2023-05-23T04:18:31;11.23;;;5.82;;
20997;SDS011;10657;51.276;6.390;2023-05-23T04:21:04;9.77;;;5.55;;
20997;SDS011;10657;51.276;6.390;2023-05-23T04:23:31;12.05;;;6.88;;
20997;SDS011;10657;51.276;6.390;2023-05-23T04:25:58;9.65;;;5.47;;
20997;SDS011;10657;51.276;6.390;2023-05-23T04:28:25;13.80;;;6.50;;
20997;SDS011;10657;51.276;6.390;2023-05-23T04:30:52;11.52;;;6.75;;
20997;SDS011;10657;51.276;6.390;2023-05-23T04:33:19;12.40;;;6.75;;
20997;SDS011;10657;51.276;6.390;2023-05-23T04:35:46;12.82;;;6.15;;
20997;SDS011;10657;51.276;6.390;2023-05-23T04:38:14;9.68;;;5.63;;
20997;SDS011;10657;51.276;6.390;2023-05-23T04:40:41;13.02;;;6.68;;
20997;SDS011;10657;51.276;6.390;2023-05-23T04:43:08;11.38;;;6.20;;
20997;SDS011;10657;51.276;6.390;2023-05-23T04:45:35;12.98;;;7.35;;
20997;SDS011;10657;51.276;6.390;2023-05-23T04:48:02;14.82;;;6.75;;
20997;SDS011;10657;51.276;6.390;2023-05-23T04:50:29;12.55;;;6.88;;
20997;SDS011;10657;51.276;6.390;2023-05-23T04:52:58;13.52;;;6.72;;
20997;SDS011;10657;51.276;6.390;2023-05-23T04:55:25;12.65;;;6.60;;
20997;SDS011;10657;51.276;6.390;2023-05-23T04:57:51;12.95;;;7.40;;
20997;SDS011;10657;51.276;6.390;2023-05-23T05:00:18;12.57;;;6.30;;
20997;SDS011;10657;51.276;6.390;2023-05-23T05:02:45;14.30;;;7.80;;
20997;SDS011;10657;51.276;6.390;2023-05-23T05:05:12;10.82;;;6.25;;
20997;SDS011;10657;51.276;6.390;2023-05-23T05:07:38;16.17;;;8.07;;
20997;SDS011;10657;51.276;6.390;2023-05-23T05:10:05;16.02;;;6.78;;
20997;SDS011;10657;51.276;6.390;2023-05-23T05:12:32;14.30;;;7.38;;
20997;SDS011;10657;51.276;6.390;2023-05-23T05:15:01;14.52;;;6.65;;
20997;SDS011;10657;51.276;6.390;2023-05-23T05:17:29;13.77;;;7.50;;
20997;SDS011;10657;51.276;6.390;2023-05-23T05:19:55;12.05;;;7.38;;
20997;SDS011;10657;51.276;6.390;2023-05-23T05:22:22;13.95;;;6.90;;
20997;SDS011;10657;51.276;6.390;2023-05-23T05:24:50;11.55;;;6.15;;
20997;SDS011;10657;51.276;6.390;2023-05-23T05:27:17;13.23;;;7.03;;
20997;SDS011;10657;51.276;6.390;2023-05-23T05:29:44;11.65;;;6.18;;
20997;SDS011;10657;51.276;6.390;2023-05-23T05:32:10;12.15;;;5.85;;
20997;SDS011;10657;51.276;6.390;2023-05-23T05:34:37;11.02;;;5.68;;
20997;SDS011;10657;51.276;6.390;2023-05-23T05:37:04;11.48;;;6.38;;
20997;SDS011;10657;51.276;6.390;2023-05-23T05:39:31;12.70;;;6.30;;
20997;SDS011;10657;51.276;6.390;2023-05-23T05:41:57;14.18;;;5.72;;
20997;SDS011;10657;51.276;6.390;2023-05-23T05:44:26;10.63;;;5.57;;
20997;SDS011;10657;51.276;6.390;2023-05-23T05:46:53;12.43;;;6.03;;
20997;SDS011;10657;51.276;6.390;2023-05-23T05:49:20;11.35;;;5.57;;
20997;SDS011;10657;51.276;6.390;2023-05-23T05:51:47;12.35;;;6.38;;
20997;SDS011;10657;51.276;6.390;2023-05-23T05:54:14;10.95;;;5.38;;
20997;SDS011;10657;51.276;6.390;2023-05-23T05:56:44;12.35;;;5.40;;
20997;SDS011;10657;51.276;6.390;2023-05-23T05:59:11;11.15;;;5.70;;
20997;SDS011;10657;51.276;6.390;2023-05-23T06:01:38;13.00;;;5.75;;
20997;SDS011;10657;51.276;6.390;2023-05-23T06:04:06;11.40;;;5.30;;
20997;SDS011;10657;51.276;6.390;2023-05-23T06:06:33;11.63;;;5.15;;
20997;SDS011;10657;51.276;6.390;2023-05-23T06:08:59;9.35;;;4.68;;
20997;SDS011;10657;51.276;6.390;2023-05-23T06:11:26;10.38;;;5.07;;
20997;SDS011;10657;51.276;6.390;2023-05-23T06:13:53;11.65;;;4.97;;
20997;SDS011;10657;51.276;6.390;2023-05-23T06:16:20;10.13;;;5.30;;
20997;SDS011;10657;51.276;6.390;2023-05-23T06:18:46;10.35;;;5.20;;
20997;SDS011;10657;51.276;6.390;2023-05-23T06:21:13;10.02;;;5.40;;
20997;SDS011;10657;51.276;6.390;2023-05-23T06:23:40;10.38;;;5.30;;
20997;SDS011;10657;51.276;6.390;2023-05-23T06:26:06;11.18;;;5.47;;
20997;SDS011;10657;51.276;6.390;2023-05-23T06:28:38;9.73;;;4.85;;
20997;SDS011;10657;51.276;6.390;2023-05-23T06:31:05;9.88;;;4.72;;
20997;SDS011;10657;51.276;6.390;2023-05-23T06:33:35;11.68;;;5.35;;
20997;SDS011;10657;51.276;6.390;2023-05-23T06:36:02;11.50;;;5.57;;
20997;SDS011;10657;51.276;6.390;2023-05-23T06:38:28;11.32;;;6.13;;
20997;SDS011;10657;51.276;6.390;2023-05-23T06:40:58;13.32;;;6.00;;
20997;SDS011;10657;51.276;6.390;2023-05-23T06:43:25;13.93;;;7.20;;
20997;SDS011;10657;51.276;6.390;2023-05-23T06:45:52;14.43;;;7.10;;
20997;SDS011;10657;51.276;6.390;2023-05-23T06:48:19;14.32;;;7.60;;
20997;SDS011;10657;51.276;6.390;2023-05-23T06:50:46;15.13;;;6.72;;
20997;SDS011;10657;51.276;6.390;2023-05-23T06:53:12;13.45;;;6.72;;
20997;SDS011;10657;51.276;6.390;2023-05-23T06:55:40;13.23;;;6.20;;
20997;SDS011;10657;51.276;6.390;2023-05-23T06:58:07;13.73;;;6.93;;
20997;SDS011;10657;51.276;6.390;2023-05-23T07:00:34;19.02;;;7.75;;
20997;SDS011;10657;51.276;6.390;2023-05-23T07:03:00;15.05;;;7.80;;
20997;SDS011;10657;51.276;6.390;2023-05-23T07:05:28;18.15;;;7.68;;
20997;SDS011;10657;51.276;6.390;2023-05-23T07:07:55;17.60;;;8.48;;
20997;SDS011;10657;51.276;6.390;2023-05-23T07:10:22;21.55;;;8.05;;
20997;SDS011;10657;51.276;6.390;2023-05-23T07:12:49;20.77;;;8.05;;
20997;SDS011;10657;51.276;6.390;2023-05-23T07:15:16;16.00;;;8.40;;
20997;SDS011;10657;51.276;6.390;2023-05-23T07:17:43;23.13;;;7.97;;
20997;SDS011;10657;51.276;6.390;2023-05-23T07:20:10;19.95;;;9.27;;
20997;SDS011;10657;51.276;6.390;2023-05-23T07:22:37;20.45;;;8.35;;
20997;SDS011;10657;51.276;6.390;2023-05-23T07:25:03;23.23;;;8.75;;
20997;SDS011;10657;51.276;6.390;2023-05-23T07:27:31;16.48;;;7.57;;
20997;SDS011;10657;51.276;6.390;2023-05-23T07:29:57;16.52;;;7.68;;
20997;SDS011;10657;51.276;6.390;2023-05-23T07:32:24;17.40;;;8.23;;
20997;SDS011;10657;51.276;6.390;2023-05-23T07:34:51;19.25;;;8.27;;
20997;SDS011;10657;51.276;6.390;2023-05-23T07:37:17;21.77;;;7.88;;
20997;SDS011;10657;51.276;6.390;2023-05-23T07:39:44;17.33;;;7.70;;
20997;SDS011;10657;51.276;6.390;2023-05-23T07:42:11;17.27;;;7.40;;
20997;SDS011;10657;51.276;6.390;2023-05-23T07:44:37;13.65;;;6.47;;
20997;SDS011;10657;51.276;6.390;2023-05-23T07:47:06;17.30;;;7.38;;
20997;SDS011;10657;51.276;6.390;2023-05-23T07:49:32;15.25;;;6.47;;
20997;SDS011;10657;51.276;6.390;2023-05-23T07:51:59;15.85;;;6.80;;
20997;SDS011;10657;51.276;6.390;2023-05-23T07:54:26;15.43;;;6.25;;
20997;SDS011;10657;51.276;6.390;2023-05-23T07:56:52;17.17;;;5.45;;
20997;SDS011;10657;51.276;6.390;2023-05-23T07:59:19;11.82;;;6.22;;
20997;SDS011;10657;51.276;6.390;2023-05-23T08:01:47;15.77;;;6.70;;
20997;SDS011;10657;51.276;6.390;2023-05-23T08:04:17;16.08;;;6.10;;
20997;SDS011;10657;51.276;6.390;2023-05-23T08:06:44;15.82;;;6.32;;
20997;SDS011;10657;51.276;6.390;2023-05-23T08:09:30;17.08;;;6.18;;
20997;SDS011;10657;51.276;6.390;2023-05-23T08:11:57;18.50;;;5.88;;
20997;SDS011;10657;51.276;6.390;2023-05-23T08:14:25;14.70;;;6.05;;
20997;SDS011;10657;51.276;6.390;2023-05-23T08:17:11;17.17;;;6.45;;
20997;SDS011;10657;51.276;6.390;2023-05-23T08:19:38;16.60;;;6.40;;
20997;SDS011;10657;51.276;6.390;2023-05-23T08:22:05;15.55;;;5.15;;
20997;SDS011;10657;51.276;6.390;2023-05-23T08:24:32;17.20;;;6.35;;
20997;SDS011;10657;51.276;6.390;2023-05-23T08:26:59;13.35;;;5.75;;
20997;SDS011;10657;51.276;6.390;2023-05-23T08:29:26;14.48;;;5.63;;
20997;SDS011;10657;51.276;6.390;2023-05-23T08:31:53;13.63;;;5.38;;
20997;SDS011;10657;51.276;6.390;2023-05-23T08:34:20;12.88;;;5.28;;
20997;SDS011;10657;51.276;6.390;2023-05-23T08:36:47;13.95;;;5.15;;
20997;SDS011;10657;51.276;6.390;2023-05-23T08:39:13;12.63;;;4.82;;
20997;SDS011;10657;51.276;6.390;2023-05-23T08:41:40;15.30;;;5.18;;
20997;SDS011;10657;51.276;6.390;2023-05-23T08:44:07;13.02;;;4.50;;
20997;SDS011;10657;51.276;6.390;2023-05-23T08:46:35;13.75;;;4.55;;
20997;SDS011;10657;51.276;6.390;2023-05-23T08:49:09;10.90;;;4.80;;
20997;SDS011;10657;51.276;6.390;2023-05-23T08:51:37;16.13;;;5.20;;
20997;SDS011;10657;51.276;6.390;2023-05-23T08:54:07;10.05;;;4.03;;
20997;SDS011;10657;51.276;6.390;2023-05-23T08:56:38;9.48;;;3.85;;
20997;SDS011;10657;51.276;6.390;2023-05-23T08:59:07;13.63;;;5.53;;
20997;SDS011;10657;51.276;6.390;2023-05-23T09:01:34;13.45;;;5.03;;
20997;SDS011;10657;51.276;6.390;2023-05-23T09:04:02;15.00;;;5.93;;
20997;SDS011;10657;51.276;6.390;2023-05-23T09:06:32;11.90;;;4.93;;
20997;SDS011;10657;51.276;6.390;2023-05-23T09:08:59;15.35;;;5.55;;
20997;SDS011;10657;51.276;6.390;2023-05-23T09:11:26;15.15;;;5.75;;
20997;SDS011;10657;51.276;6.390;2023-05-23T09:13:53;12.93;;;5.10;;
20997;SDS011;10657;51.276;6.390;2023-05-23T09:16:21;11.32;;;4.75;;
20997;SDS011;10657;51.276;6.390;2023-05-23T09:18:48;13.75;;;5.50;;
20997;SDS011;10657;51.276;6.390;2023-05-23T09:21:14;12.52;;;4.45;;
20997;SDS011;10657;51.276;6.390;2023-05-23T09:23:41;13.38;;;5.63;;
20997;SDS011;10657;51.276;6.390;2023-05-23T09:26:09;12.05;;;4.07;;
20997;SDS011;10657;51.276;6.390;2023-05-23T09:28:37;10.68;;;4.20;;
20997;SDS011;10657;51.276;6.390;2023-05-23T09:31:05;13.38;;;4.63;;
20997;SDS011;10657;51.276;6.390;2023-05-23T09:33:44;13.02;;;4.40;;
20997;SDS011;10657;51.276;6.390;2023-05-23T09:36:13;10.65;;;4.40;;
20997;SDS011;10657;51.276;6.390;2023-05-23T09:38:40;12.07;;;4.45;;
20997;SDS011;10657;51.276;6.390;2023-05-23T09:41:09;11.77;;;4.00;;
20997;SDS011;10657;51.276;6.390;2023-05-23T09:43:39;12.63;;;5.18;;
20997;SDS011;10657;51.276;6.390;2023-05-23T09:46:14;10.57;;;4.68;;
20997;SDS011;10657;51.276;6.390;2023-05-23T09:48:47;10.00;;;4.22;;
20997;SDS011;10657;51.276;6.390;2023-05-23T09:51:20;10.63;;;3.95;;
20997;SDS011;10657;51.276;6.390;2023-05-23T09:53:48;6.93;;;3.33;;
20997;SDS011;10657;51.276;6.390;2023-05-23T09:56:16;12.07;;;4.60;;
20997;SDS011;10657;51.276;6.390;2023-05-23T09:58:47;7.93;;;2.85;;
20997;SDS011;10657;51.276;6.390;2023-05-23T10:01:15;6.38;;;3.00;;
20997;SDS011;10657;51.276;6.390;2023-05-23T10:03:50;6.20;;;2.63;;
20997;SDS011;10657;51.276;6.390;2023-05-23T10:06:25;8.50;;;3.47;;
20997;SDS011;10657;51.276;6.390;2023-05-23T10:09:05;7.80;;;3.65;;
20997;SDS011;10657;51.276;6.390;2023-05-23T10:14:01;8.55;;;3.90;;
20997;SDS011;10657;51.276;6.390;2023-05-23T10:19:26;9.80;;;4.15;;
20997;SDS011;10657;51.276;6.390;2023-05-23T10:22:14;12.48;;;5.03;;
20997;SDS011;10657;51.276;6.390;2023-05-23T10:24:43;10.30;;;4.18;;
20997;SDS011;10657;51.276;6.390;2023-05-23T10:27:11;9.25;;;3.15;;
20997;SDS011;10657;51.276;6.390;2023-05-23T10:29:38;7.10;;;2.70;;
20997;SDS011;10657;51.276;6.390;2023-05-23T10:32:05;13.60;;;4.90;;
20997;SDS011;10657;51.276;6.390;2023-05-23T10:37:06;13.60;;;4.53;;
20997;SDS011;10657;51.276;6.390;2023-05-23T10:45:17;8.45;;;3.05;;
20997;SDS011;10657;51.276;6.390;2023-05-23T10:47:49;12.80;;;4.88;;
20997;SDS011;10657;51.276;6.390;2023-05-23T10:50:34;10.90;;;5.05;;
20997;SDS011;10657;51.276;6.390;2023-05-23T10:53:05;13.10;;;4.55;;
20997;SDS011;10657;51.276;6.390;2023-05-23T10:55:34;6.30;;;2.50;;
20997;SDS011;10657;51.276;6.390;2023-05-23T10:58:17;8.57;;;3.17;;
20997;SDS011;10657;51.276;6.390;2023-05-23T11:01:00;11.70;;;5.30;;
20997;SDS011;10657;51.276;6.390;2023-05-23T11:09:13;10.38;;;3.60;;
20997;SDS011;10657;51.276;6.390;2023-05-23T11:14:17;13.10;;;3.80;;
20997;SDS011;10657;51.276;6.390;2023-05-23T11:17:01;11.18;;;3.17;;
20997;SDS011;10657;51.276;6.390;2023-05-23T11:20:25;5.68;;;2.53;;
20997;SDS011;10657;51.276;6.390;2023-05-23T11:22:34;8.55;;;2.85;;
20997;SDS011;10657;51.276;6.390;2023-05-23T11:25:05;6.72;;;2.83;;
20997;SDS011;10657;51.276;6.390;2023-05-23T11:27:33;6.93;;;3.00;;
20997;SDS011;10657;51.276;6.390;2023-05-23T11:30:14;10.80;;;2.90;;
20997;SDS011;10657;51.276;6.390;2023-05-23T11:32:52;8.32;;;3.00;;
20997;SDS011;10657;51.276;6.390;2023-05-23T11:35:22;6.82;;;2.60;;
20997;SDS011;10657;51.276;6.390;2023-05-23T11:37:50;8.50;;;2.90;;
20997;SDS011;10657;51.276;6.390;2023-05-23T11:40:38;9.48;;;3.10;;
20997;SDS011;10657;51.276;6.390;2023-05-23T11:43:13;10.20;;;3.50;;
20997;SDS011;10657;51.276;6.390;2023-05-23T11:45:41;8.65;;;3.22;;
20997;SDS011;10657;51.276;6.390;2023-05-23T11:48:09;11.32;;;3.55;;
20997;SDS011;10657;51.276;6.390;2023-05-23T11:53:26;7.65;;;2.38;;
20997;SDS011;10657;51.276;6.390;2023-05-23T11:56:00;10.18;;;3.25;;
20997;SDS011;10657;51.276;6.390;2023-05-23T11:58:30;10.95;;;3.53;;
20997;SDS011;10657;51.276;6.390;2023-05-23T12:01:10;14.00;;;3.67;;
20997;SDS011;10657;51.276;6.390;2023-05-23T12:06:18;10.38;;;3.38;;
20997;SDS011;10657;51.276;6.390;2023-05-23T12:08:47;8.40;;;2.70;;
20997;SDS011;10657;51.276;6.390;2023-05-23T12:11:14;9.85;;;3.13;;
20997;SDS011;10657;51.276;6.390;2023-05-23T12:13:41;11.05;;;3.53;;
20997;SDS011;10657;51.276;6.390;2023-05-23T12:16:08;12.63;;;3.30;;
20997;SDS011;10657;51.276;6.390;2023-05-23T12:18:36;12.70;;;3.35;;
20997;SDS011;10657;51.276;6.390;2023-05-23T12:21:04;12.50;;;4.03;;
20997;SDS011;10657;51.276;6.390;2023-05-23T12:23:33;10.18;;;3.40;;
20997;SDS011;10657;51.276;6.390;2023-05-23T12:26:03;8.32;;;2.95;;
20997;SDS011;10657;51.276;6.390;2023-05-23T12:28:39;12.23;;;4.00;;
20997;SDS011;10657;51.276;6.390;2023-05-23T12:31:15;14.57;;;4.13;;
20997;SDS011;10657;51.276;6.390;2023-05-23T12:33:42;11.38;;;3.30;;
20997;SDS011;10657;51.276;6.390;2023-05-23T12:36:10;10.18;;;3.30;;
20997;SDS011;10657;51.276;6.390;2023-05-23T12:38:37;8.55;;;2.50;;
20997;SDS011;10657;51.276;6.390;2023-05-23T12:41:14;17.13;;;4.13;;
20997;SDS011;10657;51.276;6.390;2023-05-23T12:43:52;12.48;;;3.35;;
20997;SDS011;10657;51.276;6.390;2023-05-23T12:46:23;6.15;;;2.60;;
20997;SDS011;10657;51.276;6.390;2023-05-23T12:48:51;6.97;;;2.45;;
20997;SDS011;10657;51.276;6.390;2023-05-23T12:51:18;5.97;;;2.55;;
20997;SDS011;10657;51.276;6.390;2023-05-23T12:53:46;5.32;;;2.38;;
20997;SDS011;10657;51.276;6.390;2023-05-23T12:56:13;8.73;;;3.33;;
20997;SDS011;10657;51.276;6.390;2023-05-23T12:58:39;14.20;;;4.13;;
20997;SDS011;10657;51.276;6.390;2023-05-23T13:01:06;13.18;;;3.50;;
20997;SDS011;10657;51.276;6.390;2023-05-23T13:03:33;7.65;;;2.78;;
20997;SDS011;10657;51.276;6.390;2023-05-23T13:06:00;6.00;;;2.10;;
20997;SDS011;10657;51.276;6.390;2023-05-23T13:08:27;9.18;;;3.20;;
20997;SDS011;10657;51.276;6.390;2023-05-23T13:10:54;7.07;;;2.53;;
20997;SDS011;10657;51.276;6.390;2023-05-23T13:13:21;12.70;;;3.83;;
20997;SDS011;10657;51.276;6.390;2023-05-23T13:15:49;13.13;;;3.83;;
20997;SDS011;10657;51.276;6.390;2023-05-23T13:18:17;8.55;;;2.95;;
20997;SDS011;10657;51.276;6.390;2023-05-23T13:20:44;15.65;;;4.20;;
20997;SDS011;10657;51.276;6.390;2023-05-23T13:23:11;10.18;;;3.13;;
20997;SDS011;10657;51.276;6.390;2023-05-23T13:25:38;7.80;;;1.70;;
20997;SDS011;10657;51.276;6.390;2023-05-23T13:28:04;12.13;;;4.20;;
20997;SDS011;10657;51.276;6.390;2023-05-23T13:30:31;7.93;;;2.47;;
20997;SDS011;10657;51.276;6.390;2023-05-23T13:32:59;9.27;;;2.95;;
20997;SDS011;10657;51.276;6.390;2023-05-23T13:35:25;14.27;;;3.63;;
20997;SDS011;10657;51.276;6.390;2023-05-23T13:37:52;11.48;;;3.47;;
20997;SDS011;10657;51.276;6.390;2023-05-23T13:40:19;15.35;;;4.43;;
20997;SDS011;10657;51.276;6.390;2023-05-23T13:42:47;13.93;;;3.42;;
20997;SDS011;10657;51.276;6.390;2023-05-23T13:45:16;7.68;;;2.95;;
20997;SDS011;10657;51.276;6.390;2023-05-23T13:47:44;5.95;;;2.45;;
20997;SDS011;10657;51.276;6.390;2023-05-23T13:50:11;5.68;;;2.17;;
20997;SDS011;10657;51.276;6.390;2023-05-23T13:52:38;13.70;;;3.60;;
20997;SDS011;10657;51.276;6.390;2023-05-23T13:55:11;11.48;;;3.72;;
20997;SDS011;10657;51.276;6.390;2023-05-23T13:57:37;13.60;;;3.65;;
20997;SDS011;10657;51.276;6.390;2023-05-23T14:00:04;7.15;;;2.40;;
20997;SDS011;10657;51.276;6.390;2023-05-23T14:02:34;11.32;;;3.38;;
20997;SDS011;10657;51.276;6.390;2023-05-23T14:05:01;13.50;;;3.53;;
20997;SDS011;10657;51.276;6.390;2023-05-23T14:07:28;7.80;;;3.10;;
20997;SDS011;10657;51.276;6.390;2023-05-23T14:09:56;7.55;;;2.75;;
20997;SDS011;10657;51.276;6.390;2023-05-23T14:12:24;10.93;;;3.22;;
20997;SDS011;10657;51.276;6.390;2023-05-23T14:14:51;5.43;;;2.13;;
20997;SDS011;10657;51.276;6.390;2023-05-23T14:17:18;6.15;;;2.42;;
20997;SDS011;10657;51.276;6.390;2023-05-23T14:19:45;13.75;;;3.25;;
20997;SDS011;10657;51.276;6.390;2023-05-23T14:22:12;6.15;;;2.50;;
20997;SDS011;10657;51.276;6.390;2023-05-23T14:24:39;15.60;;;3.75;;
20997;SDS011;10657;51.276;6.390;2023-05-23T14:27:05;9.38;;;2.70;;
20997;SDS011;10657;51.276;6.390;2023-05-23T14:29:36;8.73;;;2.50;;
20997;SDS011;10657;51.276;6.390;2023-05-23T14:32:02;12.88;;;3.25;;
20997;SDS011;10657;51.276;6.390;2023-05-23T14:34:30;6.97;;;2.33;;
20997;SDS011;10657;51.276;6.390;2023-05-23T14:36:57;9.20;;;2.15;;
20997;SDS011;10657;51.276;6.390;2023-05-23T14:39:23;16.48;;;3.63;;
20997;SDS011;10657;51.276;6.390;2023-05-23T14:41:50;9.55;;;2.88;;
20997;SDS011;10657;51.276;6.390;2023-05-23T14:44:17;7.93;;;2.35;;
20997;SDS011;10657;51.276;6.390;2023-05-23T14:46:44;7.18;;;2.45;;
20997;SDS011;10657;51.276;6.390;2023-05-23T14:49:15;8.70;;;2.40;;
20997;SDS011;10657;51.276;6.390;2023-05-23T14:51:42;15.45;;;3.10;;
20997;SDS011;10657;51.276;6.390;2023-05-23T14:54:16;6.95;;;2.55;;
20997;SDS011;10657;51.276;6.390;2023-05-23T14:56:43;6.10;;;2.20;;
20997;SDS011;10657;51.276;6.390;2023-05-23T14:59:10;8.93;;;2.60;;
20997;SDS011;10657;51.276;6.390;2023-05-23T15:01:36;7.90;;;2.70;;
20997;SDS011;10657;51.276;6.390;2023-05-23T15:04:06;10.65;;;2.72;;
20997;SDS011;10657;51.276;6.390;2023-05-23T15:06:35;16.33;;;3.97;;
20997;SDS011;10657;51.276;6.390;2023-05-23T15:09:03;13.55;;;3.30;;
20997;SDS011;10657;51.276;6.390;2023-05-23T15:11:30;10.05;;;3.15;;
20997;SDS011;10657;51.276;6.390;2023-05-23T15:13:58;5.75;;;2.35;;
20997;SDS011;10657;51.276;6.390;2023-05-23T15:16:25;11.95;;;2.92;;
20997;SDS011;10657;51.276;6.390;2023-05-23T15:18:52;5.57;;;2.17;;
20997;SDS011;10657;51.276;6.390;2023-05-23T15:21:19;5.82;;;2.35;;
20997;SDS011;10657;51.276;6.390;2023-05-23T15:23:46;10.90;;;3.00;;